Time;durP1;ratioP1;P1;durP2;ratioP2;P2;SDS_P1;SDS_P2;PMS_P1;PMS_P2;Temp;Humidity;BMP_temperature;BMP_pressure;BME280_temperature;BME280_humidity;BME280_pressure;Samples;Min_cycle;Max_cycle;Signal;HPM_P1;HPM_P2
2022/07/02 00:06:04;;;;;;;4.57;3.00;;;;;;;16.77;70.62;100653.69;30867096;28;97477;-66
2022/07/02 00:21:05;;;;;;;4.13;3.03;;;;;;;16.73;70.88;100650.59;30866387;28;96717;-67
2022/07/02 00:36:06;;;;;;;4.22;3.15;;;;;;;16.76;70.75;100662.81;30865682;28;97209;-65
2022/07/02 00:51:06;;;;;;;8.47;4.17;;;;;;;16.71;70.91;100682.22;30864264;28;97495;-63
2022/07/02 01:06:07;;;;;;;6.07;3.97;;;;;;;16.67;71.08;100677.47;30861543;28;97094;-64
2022/07/02 01:21:07;;;;;;;5.90;4.85;;;;;;;16.65;71.07;100680.34;30860394;28;96764;-63
2022/07/02 01:36:07;;;;;;;4.95;3.83;;;;;;;16.62;71.25;100710.34;30859289;28;96842;-71
2022/07/02 01:51:08;;;;;;;4.10;3.65;;;;;;;16.57;71.00;100758.50;30858103;28;99593;-70
2022/07/02 02:06:08;;;;;;;5.72;4.82;;;;;;;16.49;70.77;100774.78;30857093;28;96798;-64
2022/07/02 02:21:09;;;;;;;7.43;4.88;;;;;;;16.23;71.95;100800.41;30854314;28;96827;-62
2022/07/02 02:36:09;;;;;;;6.90;4.80;;;;;;;16.22;72.50;100804.13;30853394;28;97083;-70
2022/07/02 02:51:13;;;;;;;7.70;5.07;;;;;;;16.21;72.69;100799.75;30852775;28;96832;-67
2022/07/02 03:06:14;;;;;;;9.10;6.07;;;;;;;16.13;72.50;100795.38;30850389;28;97813;-63
2022/07/02 03:21:14;;;;;;;12.50;7.13;;;;;;;16.09;72.74;100796.78;30849152;28;97193;-62
2022/07/02 03:36:15;;;;;;;10.40;7.28;;;;;;;15.99;72.88;100802.47;30861325;28;96709;-69
2022/07/02 03:51:15;;;;;;;9.68;7.07;;;;;;;15.98;73.24;100819.59;30866861;28;96853;-62
2022/07/02 04:06:16;;;;;;;11.55;8.13;;;;;;;16.01;73.67;100826.47;30866067;28;104441;-71
2022/07/02 04:21:16;;;;;;;10.75;7.10;;;;;;;16.05;73.26;100847.38;30761656;28;96891;-63
2022/07/02 04:36:16;;;;;;;9.00;6.00;;;;;;;16.12;73.27;100877.00;30742265;28;106685;-62
2022/07/02 04:51:18;;;;;;;12.63;8.20;;;;;;;15.93;73.60;100899.94;30738460;28;96774;-63
2022/07/02 05:06:19;;;;;;;12.13;7.60;;;;;;;15.79;74.02;100919.56;30739001;28;96704;-70
2022/07/02 05:21:19;;;;;;;9.73;7.30;;;;;;;15.72;74.33;100947.19;30736732;28;96726;-69
2022/07/02 05:36:19;;;;;;;8.43;5.60;;;;;;;15.80;74.77;100969.63;30735302;28;115757;-69
2022/07/02 05:51:19;;;;;;;10.38;8.18;;;;;;;16.07;74.67;100976.19;30734752;28;98600;-70
2022/07/02 06:21:39;;;;;;;12.73;6.13;;;;;;;17.04;72.82;100995.69;30731562;28;97061;-62
2022/07/02 06:36:39;;;;;;;8.93;5.10;;;;;;;18.24;70.32;100999.19;30730015;28;96736;-70
2022/07/02 06:51:40;;;;;;;7.38;3.40;;;;;;;18.99;68.11;101006.47;30729237;28;96645;-68
2022/07/02 07:07:00;;;;;;;5.32;2.55;;;;;;;19.65;64.89;101014.78;30727470;28;97471;-71
2022/07/02 07:22:01;;;;;;;2.30;1.60;;;;;;;21.05;61.65;101013.38;30724360;28;97288;-70
2022/07/02 07:37:01;;;;;;;5.13;3.58;;;;;;;21.30;57.56;101016.91;30725397;28;96943;-67
2022/07/02 07:52:02;;;;;;;2.88;1.75;;;;;;;22.34;55.27;101044.47;30716035;28;97089;-65
2022/07/02 08:07:02;;;;;;;2.50;1.10;;;;;;;23.56;51.00;101045.22;30724080;28;96757;-63
2022/07/02 08:22:03;;;;;;;3.70;1.90;;;;;;;23.58;49.07;101062.97;30734743;28;97256;-63
2022/07/02 08:37:04;;;;;;;1.50;1.10;;;;;;;24.19;47.00;101062.69;30737774;28;96901;-62
2022/07/02 08:52:07;;;;;;;2.47;0.90;;;;;;;25.49;43.04;101066.78;30729441;28;97124;-63
2022/07/02 09:07:07;;;;;;;1.50;0.83;;;;;;;25.70;41.76;101070.66;30734821;28;96917;-80
2022/07/02 09:22:08;;;;;;;2.28;0.90;;;;;;;25.90;40.67;101064.63;30738433;28;97330;-63
2022/07/02 09:37:17;;;;;;;2.13;1.10;;;;;;;27.29;37.53;101055.28;30747618;28;97721;-63
2022/07/02 09:52:17;;;;;;;3.20;1.00;;;;;;;27.41;36.10;101057.88;30739044;28;96748;-69
2022/07/02 10:07:23;;;;;;;3.55;1.65;;;;;;;27.78;35.96;101059.75;30734183;28;96620;-68
2022/07/02 10:22:23;;;;;;;0.97;0.90;;;;;;;27.77;35.54;101054.56;30732797;28;97245;-63
2022/07/02 10:37:24;;;;;;;3.58;1.40;;;;;;;28.32;34.47;101053.22;30731196;28;96745;-62
2022/07/02 10:52:51;;;;;;;4.35;1.00;;;;;;;28.62;34.14;101042.59;30724677;28;98218;-63
2022/07/02 11:07:52;;;;;;;1.77;1.10;;;;;;;29.25;33.26;101034.19;30853230;28;96717;-72
2022/07/02 11:22:53;;;;;;;2.70;1.10;;;;;;;29.51;32.36;101028.66;30861126;28;98196;-64
2022/07/02 11:37:58;;;;;;;1.90;1.07;;;;;;;29.79;31.73;101010.75;30845499;28;97381;-63
2022/07/02 11:52:59;;;;;;;3.20;1.00;;;;;;;29.99;30.19;101007.16;30845258;28;97072;-63
2022/07/02 12:07:59;;;;;;;9.93;1.63;;;;;;;29.88;30.61;101017.34;30857547;28;98180;-67
2022/07/02 12:22:59;;;;;;;3.65;1.83;;;;;;;28.91;31.43;101003.72;30855236;28;96807;-62
2022/07/02 12:38:00;;;;;;;2.50;1.20;;;;;;;30.10;30.27;100993.34;30854009;28;96822;-64
2022/07/02 12:53:03;;;;;;;5.85;1.13;;;;;;;30.22;29.62;100996.56;30852920;28;97481;-65
2022/07/02 13:08:04;;;;;;;5.57;1.40;;;;;;;29.09;29.91;100986.72;30849863;28;96772;-67
2022/07/02 13:23:05;;;;;;;1.97;1.10;;;;;;;29.29;30.39;100971.34;30800114;28;97614;-64
2022/07/02 13:38:05;;;;;;;4.03;1.40;;;;;;;29.42;30.57;100969.97;30735918;28;96778;-65
2022/07/02 13:53:05;;;;;;;2.35;1.30;;;;;;;28.29;30.45;100974.28;30735562;28;96962;-66
2022/07/02 14:08:06;;;;;;;4.82;1.52;;;;;;;28.27;30.64;100973.75;30734532;28;97500;-70
2022/07/02 14:23:07;;;;;;;3.03;1.00;;;;;;;27.68;31.53;100974.84;30729787;28;97154;-63
2022/07/02 14:38:08;;;;;;;1.80;1.17;;;;;;;27.29;32.67;100959.53;30728387;28;97628;-69
2022/07/02 14:53:08;;;;;;;2.97;1.20;;;;;;;27.25;32.16;100936.53;30730304;28;98465;-64
2022/07/02 15:08:08;;;;;;;2.83;1.33;;;;;;;26.67;32.71;100930.91;30727811;28;96832;-64
2022/07/02 15:23:09;;;;;;;1.58;1.05;;;;;;;26.37;32.85;100921.34;30729296;28;97375;-64
2022/07/02 15:38:11;;;;;;;2.60;1.48;;;;;;;26.11;33.21;100917.53;30747380;28;97399;-69
2022/07/02 15:53:13;;;;;;;1.83;1.13;;;;;;;25.39;34.48;100916.63;30745287;28;97582;-69
2022/07/02 16:08:13;;;;;;;2.10;1.10;;;;;;;25.28;35.51;100893.81;30744330;28;97331;-66
2022/07/02 16:23:16;;;;;;;2.35;1.20;;;;;;;25.68;34.21;100889.97;30741978;28;96938;-63
2022/07/02 16:38:19;;;;;;;3.93;1.33;;;;;;;25.65;33.98;100890.50;30740652;28;96753;-76
2022/07/02 16:53:20;;;;;;;2.00;1.07;;;;;;;25.37;34.60;100875.13;30738548;28;96679;-64
2022/07/02 17:08:20;;;;;;;1.33;1.10;;;;;;;24.96;35.22;100859.00;30738430;28;97282;-64
2022/07/02 17:23:21;;;;;;;6.13;1.30;;;;;;;24.66;35.94;100844.66;30737411;28;102703;-70
2022/07/02 17:38:22;;;;;;;3.13;1.35;;;;;;;23.73;37.22;100823.13;30737558;28;96831;-68
2022/07/02 17:53:22;;;;;;;2.40;1.50;;;;;;;22.98;39.09;100811.22;30736776;28;96682;-76
2022/07/02 18:08:23;;;;;;;3.92;1.65;;;;;;;22.36;40.45;100795.38;30734750;28;96841;-76
2022/07/02 18:23:24;;;;;;;6.13;1.65;;;;;;;21.82;41.67;100779.91;30733327;28;97323;-64
2022/07/02 18:38:24;;;;;;;3.27;1.77;;;;;;;21.33;42.94;100781.78;30732841;28;97032;-75
2022/07/02 18:53:24;;;;;;;2.43;1.20;;;;;;;20.83;44.67;100797.13;30730645;28;97858;-64
2022/07/02 19:08:25;;;;;;;3.60;1.50;;;;;;;20.44;45.88;100804.50;30726974;28;118385;-63
2022/07/02 19:23:25;;;;;;;5.03;2.23;;;;;;;20.04;47.18;100818.31;30733579;28;96796;-66
2022/07/02 19:38:25;;;;;;;6.18;2.10;;;;;;;19.63;48.57;100836.63;30732589;28;97538;-66
2022/07/02 19:53:26;;;;;;;5.20;2.30;;;;;;;19.33;49.79;100830.88;30724393;28;97278;-65
2022/07/02 20:08:27;;;;;;;4.93;2.65;;;;;;;18.91;51.16;100842.00;30724384;28;96754;-77
2022/07/02 20:23:27;;;;;;;7.03;3.10;;;;;;;18.56;52.62;100845.72;30742987;28;96888;-64
2022/07/02 20:38:27;;;;;;;7.63;2.65;;;;;;;18.26;53.80;100854.19;30742919;28;97354;-63
2022/07/02 20:53:29;;;;;;;7.33;3.20;;;;;;;17.94;55.36;100847.69;30741178;28;97767;-64
2022/07/02 21:08:29;;;;;;;9.73;3.90;;;;;;;17.72;56.38;100863.13;30740959;28;96776;-66
2022/07/02 21:23:30;;;;;;;8.23;3.60;;;;;;;17.54;57.70;100856.41;30738374;28;96778;-72
2022/07/02 21:38:30;;;;;;;7.22;3.95;;;;;;;17.14;59.00;100825.75;30738004;28;96701;-64
2022/07/02 21:53:31;;;;;;;7.30;3.58;;;;;;;16.88;59.97;100817.28;30737051;28;96880;-69
2022/07/02 22:08:32;;;;;;;7.67;3.13;;;;;;;16.61;61.23;100826.16;30820197;28;97004;-71
2022/07/02 22:23:32;;;;;;;5.25;3.63;;;;;;;17.14;62.17;100817.66;30853958;28;97372;-81
2022/07/02 22:38:33;;;;;;;5.43;3.92;;;;;;;17.24;62.08;100826.22;30905396;28;97047;-72
2022/07/02 22:53:33;;;;;;;4.72;3.25;;;;;;;17.08;62.78;100828.19;30860030;28;96728;-68
2022/07/02 23:08:33;;;;;;;7.38;4.00;;;;;;;16.95;63.22;100833.50;30851585;28;96702;-62
2022/07/02 23:23:34;;;;;;;7.35;4.45;;;;;;;16.89;63.85;100808.22;30850676;28;96730;-62
2022/07/02 23:38:34;;;;;;;4.70;3.45;;;;;;;16.66;64.32;100815.66;30849374;28;98333;-67
2022/07/02 23:53:35;;;;;;;7.60;3.83;;;;;;;16.49;65.07;100804.38;30862659;28;97152;-62
